Weather at Tachileik Airport

Public forecast

Using degrees Celsius for public forecast. Weather courtesy of forecast.io.

Closest aviation weather report (METAR) to Tachileik Airport

Closest report is Chiang Rai International Airport, 32.0 nm (59.4 km) S. Retrieved 2020/11/28 16:00 UTC (30 minutes ago):

VTCT 281600Z 00000KT CAVOK 18/18 Q1018 NOSIG

Closest aviation forecast (TAF) to Tachileik Airport

Closest forecast is Chiang Rai International Airport, 32.0 nm (59.4 km) S. Retrieved 2020/11/28 12:00 UTC (5 hours ago):

TAF VTCT 281100Z 2812/2918 36005KT 9999 FEW030